createdAt,value
2018-09-08T00:02:27.562Z,12.07
2018-09-08T00:04:57.474Z,12.10
2018-09-08T00:07:32.197Z,12.14
2018-09-08T00:10:01.736Z,12.19
2018-09-08T00:12:31.129Z,12.22
2018-09-08T00:15:05.769Z,12.21
2018-09-08T00:17:40.131Z,12.21
2018-09-08T00:20:14.989Z,12.23
2018-09-08T00:22:49.602Z,12.29
2018-09-08T00:25:24.588Z,12.33
2018-09-08T00:28:00.730Z,12.37
2018-09-08T00:30:30.270Z,12.48
2018-09-08T00:32:59.677Z,12.50
2018-09-08T00:35:29.340Z,12.45
2018-09-08T00:37:59.098Z,12.50
2018-09-08T00:40:28.523Z,12.46
2018-09-08T00:42:58.023Z,12.42
2018-09-08T00:45:27.698Z,12.44
2018-09-08T00:47:57.407Z,12.45
2018-09-08T00:50:27.210Z,12.39
2018-09-08T00:52:56.894Z,12.35
2018-09-08T00:55:26.501Z,12.26
2018-09-08T00:57:56.278Z,12.19
2018-09-08T01:00:25.937Z,12.21
2018-09-08T01:02:55.438Z,12.21
2018-09-08T01:05:25.254Z,12.19
2018-09-08T01:07:54.951Z,12.13
2018-09-08T01:10:31.385Z,12.09
2018-09-08T01:13:00.741Z,12.11
2018-09-08T01:15:30.290Z,12.06
2018-09-08T01:17:59.841Z,11.99
2018-09-08T01:20:29.200Z,11.93
2018-09-08T01:22:58.762Z,11.89
2018-09-08T01:25:28.316Z,11.85
2018-09-08T01:27:57.980Z,11.84
2018-09-08T01:30:27.510Z,11.85
2018-09-08T01:32:57.312Z,11.81
2018-09-08T01:35:27.023Z,11.82
2018-09-08T01:37:56.775Z,11.80
2018-09-08T01:40:26.438Z,11.81
2018-09-08T01:42:56.373Z,11.79
2018-09-08T01:45:26.026Z,11.77
2018-09-08T01:47:55.798Z,11.71
2018-09-08T01:50:25.707Z,11.69
2018-09-08T01:52:55.347Z,11.69
2018-09-08T01:55:25.029Z,11.64
2018-09-08T01:57:54.940Z,11.67
2018-09-08T02:00:24.857Z,11.69
2018-09-08T02:02:54.729Z,11.70
2018-09-08T02:05:24.569Z,11.70
2018-09-08T02:07:54.293Z,11.69
2018-09-08T02:10:24.036Z,11.70
2018-09-08T02:12:54.193Z,11.67
2018-09-08T02:15:23.863Z,11.63
2018-09-08T02:17:54.156Z,11.61
2018-09-08T02:20:24.460Z,11.64
2018-09-08T02:22:54.624Z,11.65
2018-09-08T02:25:25.143Z,11.70
2018-09-08T02:27:54.926Z,11.72
2018-09-08T02:30:24.986Z,11.73
2018-09-08T02:32:55.119Z,11.71
2018-09-08T02:35:24.958Z,11.70
2018-09-08T02:37:54.680Z,11.72
2018-09-08T02:40:24.465Z,11.73
2018-09-08T02:42:54.081Z,11.79
2018-09-08T02:45:24.097Z,11.72
2018-09-08T02:47:54.023Z,11.76
2018-09-08T02:50:36.979Z,11.78
2018-09-08T02:53:06.015Z,11.75
2018-09-08T02:55:34.762Z,11.79
2018-09-08T02:58:03.352Z,11.82
2018-09-08T03:00:31.869Z,11.82
2018-09-08T03:03:00.055Z,11.83
2018-09-08T03:05:28.521Z,11.86
2018-09-08T03:07:56.879Z,11.88
2018-09-08T03:10:25.155Z,11.88
2018-09-08T03:12:53.550Z,11.82
2018-09-08T03:15:21.929Z,11.80
2018-09-08T03:17:50.411Z,11.78
2018-09-08T03:20:19.006Z,11.77
2018-09-08T03:22:47.204Z,11.79
2018-09-08T03:25:15.368Z,11.80
2018-09-08T03:27:43.476Z,11.81
2018-09-08T03:30:11.634Z,11.78
2018-09-08T03:32:39.784Z,11.76
2018-09-08T03:35:07.898Z,11.73
2018-09-08T03:37:36.049Z,11.73
2018-09-08T03:40:04.149Z,11.75
2018-09-08T03:42:32.234Z,11.79
2018-09-08T03:45:00.449Z,11.79
2018-09-08T03:47:28.793Z,11.76
2018-09-08T03:49:56.985Z,11.81
2018-09-08T03:52:25.258Z,11.80
2018-09-08T03:54:53.661Z,11.82
2018-09-08T03:57:22.299Z,11.88
2018-09-08T03:59:53.564Z,11.94
2018-09-08T04:02:21.890Z,11.99
2018-09-08T04:04:52.596Z,12.03
2018-09-08T04:07:22.788Z,12.03
2018-09-08T04:09:52.876Z,12.01
2018-09-08T04:12:23.012Z,12.01
2018-09-08T04:14:53.142Z,11.99
2018-09-08T04:17:23.192Z,11.98
2018-09-08T04:19:53.156Z,11.98
2018-09-08T04:22:28.433Z,11.95
2018-09-08T04:24:58.160Z,11.84
2018-09-08T04:27:28.054Z,11.84
2018-09-08T04:29:57.731Z,11.81
2018-09-08T04:32:27.643Z,11.82
2018-09-08T04:34:58.446Z,11.83
2018-09-08T04:37:28.250Z,11.83
2018-09-08T04:39:58.172Z,11.88
2018-09-08T04:42:27.992Z,11.86
2018-09-08T04:44:58.628Z,11.85
2018-09-08T04:47:32.145Z,11.85
2018-09-08T04:50:01.586Z,11.83
2018-09-08T04:52:30.971Z,11.77
2018-09-08T04:55:00.356Z,11.78
2018-09-08T04:57:29.827Z,11.81
2018-09-08T04:59:59.367Z,11.78
2018-09-08T05:02:29.052Z,11.75
2018-09-08T05:04:58.999Z,11.76
2018-09-08T05:07:28.394Z,11.74
2018-09-08T05:09:57.874Z,11.74
2018-09-08T05:12:27.528Z,11.79
2018-09-08T05:14:57.331Z,11.79
2018-09-08T05:17:27.142Z,11.81
2018-09-08T05:19:57.131Z,11.80
2018-09-08T05:22:27.145Z,11.82
2018-09-08T05:24:57.260Z,11.79
2018-09-08T05:27:26.859Z,11.81
2018-09-08T05:29:56.776Z,11.69
2018-09-08T05:32:27.623Z,11.67
2018-09-08T05:34:57.846Z,11.65
2018-09-08T05:37:27.761Z,11.72
2018-09-08T05:39:57.784Z,11.74
2018-09-08T05:42:27.712Z,11.75
2018-09-08T05:44:57.627Z,11.78
2018-09-08T05:47:27.530Z,11.81
2018-09-08T05:49:57.368Z,11.83
2018-09-08T05:52:27.408Z,11.83
2018-09-08T05:54:58.206Z,11.83
2018-09-08T05:57:28.724Z,11.83
2018-09-08T05:59:58.182Z,11.87
2018-09-08T06:02:28.142Z,11.92
2018-09-08T06:04:58.799Z,11.95
2018-09-08T06:07:28.315Z,12.01
2018-09-08T06:09:58.069Z,12.20
2018-09-08T06:12:28.268Z,12.30
2018-09-08T06:14:57.936Z,12.31
2018-09-08T06:17:27.751Z,12.36
2018-09-08T06:19:57.602Z,12.43
2018-09-08T06:22:27.201Z,12.47
2018-09-08T06:24:57.299Z,12.47
2018-09-08T06:27:27.009Z,12.53
2018-09-08T06:29:56.722Z,12.60
2018-09-08T06:32:29.196Z,12.68
2018-09-08T06:35:00.044Z,12.75
2018-09-08T06:37:33.393Z,12.84
2018-09-08T06:40:02.722Z,12.90
2018-09-08T06:42:32.434Z,12.94
2018-09-08T06:45:02.293Z,12.95
2018-09-08T06:47:31.993Z,13.00
2018-09-08T06:50:01.403Z,13.00
2018-09-08T06:52:31.099Z,13.16
2018-09-08T06:55:00.602Z,13.25
2018-09-08T06:57:30.110Z,13.27
2018-09-08T06:59:59.823Z,13.35
2018-09-08T07:02:29.501Z,13.42
2018-09-08T07:04:59.355Z,13.56
2018-09-08T07:07:29.308Z,13.76
2018-09-08T07:09:58.959Z,14.00
2018-09-08T07:12:28.949Z,14.20
2018-09-08T07:14:58.932Z,14.33
2018-09-08T07:17:28.603Z,14.33
2018-09-08T07:19:59.106Z,14.30
2018-09-08T07:22:28.721Z,14.46
2018-09-08T07:24:58.638Z,14.66
2018-09-08T07:27:28.370Z,15.08
2018-09-08T07:29:57.912Z,15.19
2018-09-08T07:32:27.597Z,15.19
2018-09-08T07:34:57.444Z,15.25
2018-09-08T07:37:27.299Z,15.20
2018-09-08T07:39:56.810Z,15.12
2018-09-08T07:42:26.944Z,15.12
2018-09-08T07:44:56.742Z,15.12
2018-09-08T07:47:26.163Z,14.98
2018-09-08T07:49:56.064Z,14.99
2018-09-08T07:52:27.364Z,15.06
2018-09-08T07:54:58.399Z,15.05
2018-09-08T07:57:28.865Z,15.00
2018-09-08T08:00:00.820Z,14.98
2018-09-08T08:02:30.389Z,14.76
2018-09-08T08:04:59.885Z,14.95
2018-09-08T08:10:13.621Z,15.18
2018-09-08T08:12:42.904Z,15.35
2018-09-08T08:15:12.218Z,15.38
2018-09-08T08:17:41.688Z,15.65
2018-09-08T08:20:10.987Z,16.02
2018-09-08T08:22:40.304Z,16.04
2018-09-08T08:25:10.041Z,16.33
2018-09-08T08:27:39.838Z,16.34
2018-09-08T08:30:09.446Z,16.38
2018-09-08T08:32:39.084Z,16.45
2018-09-08T08:35:08.529Z,16.52
2018-09-08T08:37:37.960Z,16.52
2018-09-08T08:40:07.846Z,16.55
2018-09-08T08:42:37.209Z,16.53
2018-09-08T08:45:07.206Z,16.44
2018-09-08T08:47:38.961Z,16.38
2018-09-08T08:50:20.113Z,16.29
2018-09-08T08:53:03.152Z,16.35
2018-09-08T08:55:32.763Z,16.32
2018-09-08T08:58:02.452Z,16.36
2018-09-08T09:00:32.174Z,16.32
2018-09-08T09:03:01.818Z,16.32
2018-09-08T09:05:31.406Z,16.27
2018-09-08T09:08:01.085Z,16.15
2018-09-08T09:10:30.612Z,16.16
2018-09-08T09:13:00.083Z,16.41
2018-09-08T09:15:29.995Z,16.80
2018-09-08T09:17:59.327Z,17.04
2018-09-08T09:20:39.958Z,17.03
2018-09-08T09:24:16.993Z,16.86
2018-09-08T09:26:47.302Z,17.04
2018-09-08T09:29:17.193Z,17.09
2018-09-08T09:31:46.883Z,17.16
2018-09-08T09:34:17.338Z,17.28
2018-09-08T09:36:47.374Z,17.28
2018-09-08T09:39:17.353Z,17.38
2018-09-08T09:41:47.361Z,17.47
2018-09-08T09:44:16.916Z,17.54
2018-09-08T09:46:46.436Z,17.63
2018-09-08T09:49:15.873Z,17.77
2018-09-08T09:51:45.672Z,18.07
2018-09-08T09:54:15.553Z,18.27
2018-09-08T09:56:45.128Z,18.30
2018-09-08T09:59:15.001Z,18.24
2018-09-08T10:02:50.966Z,18.27
2018-09-08T10:05:24.104Z,18.20
2018-09-08T10:07:56.263Z,18.56
2018-09-08T10:10:28.353Z,18.68
2018-09-08T10:13:03.100Z,18.82
2018-09-08T10:15:33.205Z,19.17
2018-09-08T10:18:03.137Z,19.23
2018-09-08T10:23:13.471Z,20.05
2018-09-08T10:25:42.894Z,20.86
2018-09-08T10:28:13.751Z,21.87
2018-09-08T10:30:43.367Z,21.86
2018-09-08T10:33:13.002Z,21.55
2018-09-08T10:35:43.067Z,22.44
2018-09-08T10:38:12.912Z,22.93
2018-09-08T10:40:42.742Z,23.33
2018-09-08T10:43:12.563Z,23.28
2018-09-08T10:45:42.167Z,22.97
2018-09-08T10:48:11.648Z,22.56
2018-09-08T10:50:41.115Z,22.31
2018-09-08T10:53:10.715Z,21.84
2018-09-08T10:55:40.538Z,21.40
2018-09-08T10:58:09.869Z,20.77
2018-09-08T11:00:39.377Z,20.34
2018-09-08T11:03:08.701Z,20.44
2018-09-08T11:05:38.192Z,21.08
2018-09-08T11:08:07.801Z,21.09
2018-09-08T11:10:37.123Z,21.86
2018-09-08T11:13:07.659Z,22.68
2018-09-08T11:15:37.062Z,22.74
2018-09-08T11:18:06.516Z,22.48
2018-09-08T11:23:14.724Z,22.12
2018-09-08T11:25:44.844Z,21.60
2018-09-08T11:28:14.170Z,21.32
2018-09-08T11:30:43.655Z,21.10
2018-09-08T11:33:13.003Z,20.46
2018-09-08T11:35:42.458Z,20.19
2018-09-08T11:38:12.151Z,20.52
2018-09-08T11:40:41.752Z,20.87
2018-09-08T11:43:11.056Z,21.36
2018-09-08T11:45:40.595Z,21.37
2018-09-08T11:48:10.186Z,21.25
2018-09-08T11:50:46.711Z,21.24
2018-09-08T11:53:16.855Z,21.08
2018-09-08T11:55:46.415Z,21.68
2018-09-08T11:58:16.022Z,21.66
2018-09-08T12:00:45.415Z,21.42
2018-09-08T12:03:14.993Z,21.35
2018-09-08T12:05:44.514Z,22.08
2018-09-08T12:08:13.900Z,22.76
2018-09-08T12:10:43.591Z,23.40
2018-09-08T12:13:13.529Z,23.36
2018-09-08T12:15:42.974Z,23.75
2018-09-08T12:18:12.534Z,24.09
2018-09-08T12:20:41.932Z,24.69
2018-09-08T12:23:11.541Z,24.58
2018-09-08T12:25:41.011Z,24.25
2018-09-08T12:28:10.378Z,23.58
2018-09-08T12:31:13.777Z,23.19
2018-09-08T12:33:43.138Z,22.87
2018-09-08T12:36:12.465Z,22.55
2018-09-08T12:38:41.993Z,22.20
2018-09-08T12:41:11.361Z,22.01
2018-09-08T12:43:40.697Z,22.05
2018-09-08T12:46:10.746Z,22.13
2018-09-08T12:48:40.182Z,22.01
2018-09-08T12:51:10.975Z,21.96
2018-09-08T12:53:40.767Z,21.98
2018-09-08T12:56:10.274Z,22.13
2018-09-08T12:58:39.891Z,22.02
2018-09-08T13:01:09.475Z,21.65
2018-09-08T13:03:38.794Z,21.52
2018-09-08T13:06:08.334Z,21.29
2018-09-08T13:08:37.889Z,20.93
2018-09-08T13:11:08.209Z,20.74
2018-09-08T13:13:37.761Z,20.63
2018-09-08T13:16:07.267Z,20.57
2018-09-08T13:18:36.649Z,20.54
2018-09-08T13:21:06.208Z,20.60
2018-09-08T13:23:35.740Z,20.74
2018-09-08T13:26:05.145Z,20.67
2018-09-08T13:28:34.539Z,20.73
2018-09-08T13:31:04.777Z,20.85
2018-09-08T13:33:34.354Z,20.72
2018-09-08T13:36:03.818Z,20.77
2018-09-08T13:41:25.182Z,20.86
2018-09-08T13:43:55.134Z,20.78
2018-09-08T13:46:24.705Z,20.97
2018-09-08T13:48:54.629Z,20.99
2018-09-08T13:51:24.672Z,20.93
2018-09-08T13:53:54.910Z,20.79
2018-09-08T13:56:24.812Z,20.81
2018-09-08T13:58:54.849Z,20.86
2018-09-08T14:01:25.034Z,20.75
2018-09-08T14:03:56.295Z,20.63
2018-09-08T14:06:26.167Z,20.66
2018-09-08T14:08:57.533Z,20.68
2018-09-08T14:11:27.475Z,20.65
2018-09-08T14:13:57.831Z,20.66
2018-09-08T14:16:28.551Z,20.57
2018-09-08T14:18:59.070Z,20.96
2018-09-08T14:21:28.905Z,22.18
2018-09-08T14:23:59.043Z,22.82
2018-09-08T14:26:32.226Z,23.07
2018-09-08T14:29:01.723Z,22.93
2018-09-08T14:31:31.237Z,22.53
2018-09-08T14:34:01.511Z,22.10
2018-09-08T14:36:31.574Z,21.75
2018-09-08T14:39:01.685Z,21.58
2018-09-08T14:41:32.184Z,21.63
2018-09-08T14:44:02.193Z,21.70
2018-09-08T14:46:32.288Z,21.70
2018-09-08T14:51:38.890Z,21.12
2018-09-08T14:54:09.153Z,21.10
2018-09-08T14:56:38.588Z,21.06
2018-09-08T14:59:08.283Z,20.98
2018-09-08T15:01:37.752Z,20.91
2018-09-08T15:04:07.629Z,20.82
2018-09-08T15:06:38.133Z,20.66
2018-09-08T15:09:07.781Z,20.64
2018-09-08T15:11:38.244Z,20.59
2018-09-08T15:14:07.702Z,20.60
2018-09-08T15:16:39.314Z,20.51
2018-09-08T15:19:08.581Z,20.32
2018-09-08T15:21:38.091Z,20.39
2018-09-08T15:24:07.505Z,20.51
2018-09-08T15:26:38.154Z,20.70
2018-09-08T15:29:08.936Z,20.65
2018-09-08T15:31:38.438Z,20.58
2018-09-08T15:34:07.790Z,20.51
2018-09-08T15:36:37.242Z,20.56
2018-09-08T15:39:11.911Z,20.46
2018-09-08T15:41:41.313Z,20.34
2018-09-08T15:44:10.749Z,20.13
2018-09-08T15:46:40.210Z,20.10
2018-09-08T15:49:09.659Z,20.14
2018-09-08T15:51:39.024Z,20.25
2018-09-08T15:54:09.023Z,20.31
2018-09-08T15:56:38.925Z,20.43
2018-09-08T15:59:09.909Z,20.38
2018-09-08T16:01:39.766Z,20.18
2018-09-08T16:04:09.426Z,19.94
2018-09-08T16:06:38.838Z,19.88
2018-09-08T16:09:08.550Z,19.91
2018-09-08T16:11:37.890Z,19.85
2018-09-08T16:14:07.307Z,19.74
2018-09-08T16:16:36.806Z,19.75
2018-09-08T16:19:06.362Z,19.75
2018-09-08T16:24:14.315Z,19.54
2018-09-08T16:26:43.707Z,19.47
2018-09-08T16:29:13.261Z,19.35
2018-09-08T16:31:42.678Z,19.30
2018-09-08T16:34:12.167Z,19.21
2018-09-08T16:36:41.612Z,19.22
2018-09-08T16:39:12.243Z,19.16
2018-09-08T16:41:41.757Z,19.12
2018-09-08T16:44:11.329Z,19.14
2018-09-08T16:46:40.629Z,19.17
2018-09-08T16:49:10.189Z,19.14
2018-09-08T16:51:54.275Z,19.09
2018-09-08T16:54:24.627Z,19.08
2018-09-08T16:56:55.590Z,19.14
2018-09-08T16:59:26.970Z,19.11
2018-09-08T17:04:36.700Z,19.10
2018-09-08T17:07:06.630Z,19.04
2018-09-08T17:09:38.702Z,19.02
2018-09-08T17:12:08.678Z,18.95
2018-09-08T17:14:38.168Z,18.85
2018-09-08T17:19:51.285Z,18.78
2018-09-08T17:22:23.446Z,18.73
2018-09-08T17:24:54.147Z,18.63
2018-09-08T17:27:29.126Z,18.48
2018-09-08T17:29:59.007Z,18.44
2018-09-08T17:32:28.784Z,18.41
2018-09-08T17:34:59.050Z,18.38
2018-09-08T17:37:28.752Z,18.36
2018-09-08T17:39:59.401Z,18.31
2018-09-08T17:42:29.425Z,18.26
2018-09-08T17:44:59.152Z,18.26
2018-09-08T17:47:29.781Z,18.15
2018-09-08T17:49:59.907Z,18.11
2018-09-08T17:52:32.743Z,18.07
2018-09-08T17:55:02.532Z,18.02
2018-09-08T17:57:32.304Z,17.89
2018-09-08T18:00:02.157Z,17.84
2018-09-08T18:02:32.628Z,17.87
2018-09-08T18:05:02.657Z,17.79
2018-09-08T18:07:32.297Z,17.79
2018-09-08T18:10:02.051Z,17.83
2018-09-08T18:12:32.181Z,17.77
2018-09-08T18:15:02.286Z,17.77
2018-09-08T18:17:31.931Z,17.73
2018-09-08T18:20:01.563Z,17.69
2018-09-08T18:22:31.538Z,17.64
2018-09-08T18:25:01.464Z,17.59
2018-09-08T18:27:30.955Z,17.59
2018-09-08T18:30:00.469Z,17.57
2018-09-08T18:32:30.081Z,17.51
2018-09-08T18:34:59.497Z,17.53
2018-09-08T18:37:29.312Z,17.48
2018-09-08T18:39:59.538Z,17.47
2018-09-08T18:42:29.055Z,17.49
2018-09-08T18:44:58.521Z,17.48
2018-09-08T18:47:28.467Z,17.45
2018-09-08T18:49:58.234Z,17.40
2018-09-08T18:52:28.014Z,17.39
2018-09-08T18:54:57.576Z,17.39
2018-09-08T18:57:27.220Z,17.36
2018-09-08T18:59:57.254Z,17.36
2018-09-08T19:02:27.304Z,17.37
2018-09-08T19:04:57.018Z,17.36
2018-09-08T19:07:27.360Z,17.35
2018-09-08T19:10:02.735Z,17.34
2018-09-08T19:12:32.948Z,17.26
2018-09-08T19:15:08.125Z,17.28
2018-09-08T19:17:37.673Z,17.25
2018-09-08T19:20:17.326Z,17.24
2018-09-08T19:23:02.078Z,17.22
2018-09-08T19:25:38.678Z,17.24
2018-09-08T19:28:25.708Z,17.20
2018-09-08T19:31:13.570Z,17.21
2018-09-08T19:33:44.803Z,17.17
2018-09-08T19:36:14.551Z,17.16
2018-09-08T19:38:44.051Z,17.16
2018-09-08T19:41:15.286Z,17.17
2018-09-08T19:43:44.617Z,17.18
2018-09-08T19:46:19.340Z,17.16
2018-09-08T19:48:48.967Z,17.12
2018-09-08T19:51:18.666Z,17.07
2018-09-08T19:53:53.468Z,17.04
2018-09-08T19:56:27.818Z,17.02
2018-09-08T19:58:59.223Z,16.99
2018-09-08T20:01:29.499Z,17.02
2018-09-08T20:03:58.951Z,16.98
2018-09-08T20:06:28.480Z,16.98
2018-09-08T20:08:58.187Z,17.00
2018-09-08T20:11:27.670Z,16.97
2018-09-08T20:13:57.347Z,16.98
2018-09-08T20:16:26.821Z,17.01
2018-09-08T20:18:56.513Z,16.94
2018-09-08T20:21:26.406Z,16.95
2018-09-08T20:23:56.155Z,16.98
2018-09-08T20:26:25.727Z,16.99
2018-09-08T20:28:59.926Z,16.85
2018-09-08T20:31:29.957Z,16.79
2018-09-08T20:34:11.164Z,16.78
2018-09-08T20:36:45.491Z,16.80
2018-09-08T20:39:15.511Z,16.80
2018-09-08T20:41:45.428Z,16.84
2018-09-08T20:44:18.333Z,16.77
2018-09-08T20:46:50.372Z,16.76
2018-09-08T20:49:21.592Z,16.79
2018-09-08T20:51:52.135Z,16.77
2018-09-08T20:54:23.581Z,16.72
2018-09-08T20:56:53.481Z,16.65
2018-09-08T20:59:23.085Z,16.68
2018-09-08T21:01:53.367Z,16.71
2018-09-08T21:04:23.473Z,16.69
2018-09-08T21:06:53.421Z,16.67
2018-09-08T21:09:23.206Z,16.66
2018-09-08T21:11:52.669Z,16.64
2018-09-08T21:14:24.167Z,16.66
2018-09-08T21:16:54.026Z,16.63
2018-09-08T21:19:25.448Z,16.60
2018-09-08T21:21:59.275Z,16.69
2018-09-08T21:24:34.740Z,16.68
2018-09-08T21:27:04.138Z,16.71
2018-09-08T21:29:33.678Z,16.70
2018-09-08T21:32:03.354Z,16.76
2018-09-08T21:34:32.695Z,16.66
2018-09-08T21:37:02.039Z,16.61
2018-09-08T21:39:32.717Z,16.59
2018-09-08T21:42:02.266Z,16.59
2018-09-08T21:44:31.633Z,16.57
2018-09-08T21:47:05.862Z,16.52
2018-09-08T21:49:32.742Z,16.49
2018-09-08T21:52:02.043Z,16.44
2018-09-08T21:54:31.457Z,16.49
2018-09-08T21:57:01.284Z,16.44
2018-09-08T21:59:42.197Z,16.41
2018-09-08T22:02:14.425Z,16.39
2018-09-08T22:04:46.727Z,16.36
2018-09-08T22:07:16.068Z,16.33
2018-09-08T22:09:45.882Z,16.27
2018-09-08T22:12:15.197Z,16.27
2018-09-08T22:14:45.415Z,16.26
2018-09-08T22:17:15.003Z,16.21
2018-09-08T22:19:45.210Z,16.24
2018-09-08T22:22:14.562Z,16.26
2018-09-08T22:24:44.161Z,16.25
2018-09-08T22:27:13.488Z,16.27
2018-09-08T22:29:42.977Z,16.30
2018-09-08T22:32:12.352Z,16.27
2018-09-08T22:34:41.799Z,16.24
2018-09-08T22:37:11.077Z,16.22
2018-09-08T22:39:41.377Z,16.20
2018-09-08T22:42:10.602Z,16.21
2018-09-08T22:44:40.083Z,16.13
2018-09-08T22:47:09.387Z,16.07
2018-09-08T22:49:38.760Z,16.08
2018-09-08T22:52:08.084Z,16.07
2018-09-08T22:54:37.607Z,16.07
2018-09-08T22:57:07.021Z,16.09
2018-09-08T22:59:36.409Z,16.07
2018-09-08T23:02:05.797Z,16.07
2018-09-08T23:04:35.124Z,16.07
2018-09-08T23:07:04.413Z,16.06
2018-09-08T23:09:34.223Z,16.06
2018-09-08T23:12:03.516Z,16.08
2018-09-08T23:14:32.832Z,16.05
2018-09-08T23:17:02.200Z,16.04
2018-09-08T23:19:31.626Z,16.01
2018-09-08T23:22:01.183Z,15.98
2018-09-08T23:24:30.482Z,15.91
2018-09-08T23:27:00.493Z,15.92
2018-09-08T23:29:31.879Z,15.90
2018-09-08T23:32:02.727Z,15.91
2018-09-08T23:34:34.605Z,15.90
2018-09-08T23:37:04.298Z,15.91
2018-09-08T23:39:33.618Z,15.87
2018-09-08T23:42:04.414Z,15.84
2018-09-08T23:44:33.768Z,15.81
2018-09-08T23:47:03.140Z,15.82
2018-09-08T23:49:34.020Z,15.83
2018-09-08T23:52:03.646Z,15.86
2018-09-08T23:54:33.077Z,15.86
2018-09-08T23:57:02.848Z,15.87
2018-09-08T23:59:32.137Z,15.80
